createdAt,value
2019-05-22T00:01:29.824Z,23.77
2019-05-22T00:04:22.680Z,18.47
2019-05-22T00:06:51.747Z,24.47
2019-05-22T00:09:25.544Z,10.63
2019-05-22T00:11:56.045Z,8.70
2019-05-22T00:14:27.421Z,8.97
2019-05-22T00:16:55.949Z,6.63
2019-05-22T00:19:23.750Z,10.07
2019-05-22T00:22:00.048Z,9.70
2019-05-22T00:24:29.058Z,11.90
2019-05-22T00:26:57.637Z,9.90
2019-05-22T00:29:27.995Z,9.70
2019-05-22T00:31:56.244Z,9.73
2019-05-22T00:34:25.525Z,12.67
2019-05-22T00:36:54.569Z,9.20
2019-05-22T00:39:23.845Z,13.40
2019-05-22T00:41:52.637Z,7.97
2019-05-22T00:44:20.627Z,10.97
2019-05-22T00:46:51.157Z,7.03
2019-05-22T00:49:21.636Z,10.10
2019-05-22T00:52:24.269Z,9.10
2019-05-22T00:54:57.837Z,9.73
2019-05-22T00:57:34.557Z,10.73
2019-05-22T01:00:21.183Z,12.53
2019-05-22T01:02:50.514Z,8.63
2019-05-22T01:05:21.518Z,10.70
2019-05-22T01:07:51.680Z,8.20
2019-05-22T01:10:23.695Z,7.77
2019-05-22T01:12:55.647Z,10.73
2019-05-22T01:15:26.241Z,9.87
2019-05-22T01:17:54.340Z,9.97
2019-05-22T01:20:25.745Z,8.57
2019-05-22T01:22:57.171Z,11.97
2019-05-22T01:25:26.651Z,8.77
2019-05-22T01:27:55.817Z,10.07
2019-05-22T01:30:34.808Z,11.87
2019-05-22T01:33:08.198Z,15.80
2019-05-22T01:35:36.543Z,11.40
2019-05-22T01:38:06.201Z,10.87
2019-05-22T01:40:41.855Z,14.40
2019-05-22T01:43:11.379Z,10.20
2019-05-22T01:45:39.389Z,10.43
2019-05-22T01:48:11.756Z,13.33
2019-05-22T01:50:47.602Z,11.63
2019-05-22T01:53:18.720Z,10.07
2019-05-22T01:55:48.237Z,10.97
2019-05-22T01:58:17.873Z,14.03
2019-05-22T02:00:47.195Z,13.47
2019-05-22T02:03:17.044Z,9.03
2019-05-22T02:05:47.376Z,12.00
2019-05-22T02:08:15.253Z,13.33
2019-05-22T02:10:45.364Z,10.40
2019-05-22T02:13:16.355Z,10.43
2019-05-22T02:15:45.733Z,10.30
2019-05-22T02:18:15.844Z,9.87
2019-05-22T02:20:45.840Z,12.27
2019-05-22T02:23:13.956Z,8.23
2019-05-22T02:25:42.048Z,11.30
2019-05-22T02:28:09.853Z,11.30
2019-05-22T02:30:40.109Z,10.27
2019-05-22T02:33:10.377Z,8.13
2019-05-22T02:35:39.224Z,9.77
2019-05-22T02:38:07.904Z,11.03
2019-05-22T02:40:38.486Z,7.37
2019-05-22T02:43:08.611Z,12.80
2019-05-22T02:45:37.002Z,12.00
2019-05-22T02:48:07.605Z,10.17
2019-05-22T02:50:37.116Z,13.23
2019-05-22T02:53:08.910Z,9.97
2019-05-22T02:55:37.293Z,9.30
2019-05-22T02:58:05.974Z,11.57
2019-05-22T03:00:50.418Z,12.60
2019-05-22T03:03:19.929Z,13.53
2019-05-22T03:05:48.913Z,11.40
2019-05-22T03:08:19.434Z,12.40
2019-05-22T03:11:03.734Z,11.83
2019-05-22T03:14:10.124Z,11.87
2019-05-22T03:17:00.004Z,11.77
2019-05-22T03:19:36.850Z,13.10
2019-05-22T03:22:24.604Z,12.80
2019-05-22T03:24:54.329Z,16.93
2019-05-22T03:27:42.836Z,9.13
2019-05-22T03:30:26.298Z,10.10
2019-05-22T03:32:55.953Z,12.43
2019-05-22T03:35:25.654Z,10.50
2019-05-22T03:37:56.500Z,10.37
2019-05-22T03:40:27.594Z,9.27
2019-05-22T03:42:55.704Z,9.87
2019-05-22T03:45:24.744Z,14.43
2019-05-22T03:48:08.977Z,10.63
2019-05-22T03:50:40.125Z,10.70
2019-05-22T03:53:15.871Z,11.20
2019-05-22T03:55:44.268Z,10.87
2019-05-22T03:58:12.614Z,9.97
2019-05-22T04:00:44.724Z,10.97
2019-05-22T04:03:14.734Z,9.87
2019-05-22T04:05:43.881Z,13.33
2019-05-22T04:08:13.113Z,9.70
2019-05-22T04:10:58.646Z,13.60
2019-05-22T04:13:27.103Z,15.13
2019-05-22T04:15:55.096Z,10.57
2019-05-22T04:18:23.991Z,12.53
2019-05-22T04:20:55.016Z,13.03
2019-05-22T04:23:22.847Z,16.83
2019-05-22T04:25:53.369Z,14.77
2019-05-22T04:28:21.121Z,12.97
2019-05-22T04:30:49.208Z,11.97
2019-05-22T04:33:18.124Z,14.77
2019-05-22T04:35:48.627Z,11.67
2019-05-22T04:38:17.263Z,13.87
2019-05-22T04:40:46.851Z,15.57
2019-05-22T04:43:19.877Z,19.17
2019-05-22T04:45:46.261Z,10.90
2019-05-22T04:48:18.315Z,12.90
2019-05-22T04:50:46.704Z,12.30
2019-05-22T04:53:15.606Z,11.37
2019-05-22T04:55:45.103Z,10.77
2019-05-22T04:58:16.923Z,14.03
2019-05-22T05:00:45.721Z,10.03
2019-05-22T05:03:15.086Z,11.80
2019-05-22T05:05:45.402Z,8.87
2019-05-22T05:08:14.611Z,7.97
2019-05-22T05:10:44.753Z,9.53
2019-05-22T05:13:13.555Z,8.80
2019-05-22T05:15:41.567Z,9.73
2019-05-22T05:18:09.263Z,9.00
2019-05-22T05:20:37.670Z,8.70
2019-05-22T05:23:05.511Z,7.77
2019-05-22T05:25:33.615Z,11.20
2019-05-22T05:28:04.668Z,8.47
2019-05-22T05:30:32.669Z,7.93
2019-05-22T05:33:03.617Z,7.53
2019-05-22T05:35:32.076Z,9.53
2019-05-22T05:38:02.808Z,10.17
2019-05-22T05:40:37.473Z,10.23
2019-05-22T05:43:07.918Z,8.73
2019-05-22T05:45:38.352Z,7.37
2019-05-22T05:48:08.591Z,10.70
2019-05-22T05:50:40.636Z,10.07
2019-05-22T05:53:16.204Z,10.27
2019-05-22T05:56:13.572Z,8.77
2019-05-22T05:58:42.076Z,7.10
2019-05-22T06:01:25.725Z,9.23
2019-05-22T06:03:55.245Z,10.33
2019-05-22T06:07:12.091Z,13.47
2019-05-22T06:09:40.313Z,10.57
2019-05-22T06:12:09.796Z,11.60
2019-05-22T06:14:39.128Z,9.40
2019-05-22T06:17:52.121Z,9.50
2019-05-22T06:20:22.603Z,8.97
2019-05-22T06:23:45.684Z,9.00
2019-05-22T06:26:51.002Z,7.77
2019-05-22T06:29:21.268Z,8.15
2019-05-22T06:32:15.539Z,8.73
2019-05-22T06:34:43.342Z,10.03
2019-05-22T06:37:26.557Z,10.00
2019-05-22T06:39:55.331Z,7.50
2019-05-22T06:42:23.457Z,7.17
2019-05-22T06:44:51.825Z,9.73
2019-05-22T06:47:22.760Z,7.67
2019-05-22T06:50:00.817Z,10.15
2019-05-22T06:52:28.728Z,11.70
2019-05-22T06:54:57.116Z,10.35
2019-05-22T06:57:28.980Z,8.50
2019-05-22T07:00:12.117Z,13.83
2019-05-22T07:02:30.383Z,13.70
2019-05-22T07:04:58.179Z,10.93
2019-05-22T07:07:27.338Z,9.90
2019-05-22T07:09:56.340Z,11.70
2019-05-22T07:12:26.607Z,10.03
2019-05-22T07:15:22.570Z,10.20
2019-05-22T07:17:52.699Z,11.43
2019-05-22T07:20:21.169Z,12.33
2019-05-22T07:22:48.861Z,14.45
2019-05-22T07:25:18.575Z,11.88
2019-05-22T07:27:47.279Z,12.33
2019-05-22T07:30:15.697Z,12.73
2019-05-22T07:32:43.803Z,12.98
2019-05-22T07:35:12.451Z,21.75
2019-05-22T07:37:42.039Z,12.70
2019-05-22T07:40:10.728Z,15.13
2019-05-22T07:42:42.168Z,9.73
2019-05-22T07:45:11.708Z,13.83
2019-05-22T07:47:42.115Z,11.97
2019-05-22T07:50:12.201Z,12.58
2019-05-22T07:52:40.400Z,9.73
2019-05-22T07:55:08.192Z,9.95
2019-05-22T07:57:39.701Z,11.38
2019-05-22T08:00:08.597Z,13.93
2019-05-22T08:02:40.945Z,10.93
2019-05-22T08:05:10.077Z,14.15
2019-05-22T08:07:39.538Z,15.15
2019-05-22T08:10:12.511Z,11.35
2019-05-22T08:12:41.392Z,11.88
2019-05-22T08:15:11.816Z,9.70
2019-05-22T08:17:40.345Z,9.83
2019-05-22T08:20:09.953Z,8.58
2019-05-22T08:22:39.880Z,12.90
2019-05-22T08:25:09.925Z,9.43
2019-05-22T08:27:39.060Z,16.07
2019-05-22T08:30:08.649Z,9.15
2019-05-22T08:32:37.845Z,12.35
2019-05-22T08:35:08.164Z,8.98
2019-05-22T08:37:38.053Z,8.38
2019-05-22T08:40:08.641Z,9.10
2019-05-22T08:42:38.646Z,19.17
2019-05-22T08:45:06.909Z,8.18
2019-05-22T08:47:35.080Z,15.72
2019-05-22T08:50:03.772Z,14.53
2019-05-22T08:52:31.756Z,10.78
2019-05-22T08:55:14.706Z,10.55
2019-05-22T08:57:43.098Z,10.18
2019-05-22T09:00:13.849Z,10.75
2019-05-22T09:02:42.145Z,9.70
2019-05-22T09:05:11.993Z,10.72
2019-05-22T09:07:43.269Z,9.80
2019-05-22T09:10:12.074Z,7.80
2019-05-22T09:12:51.598Z,10.05
2019-05-22T09:15:19.888Z,11.08
2019-05-22T09:17:47.999Z,8.65
2019-05-22T09:20:18.750Z,9.58
2019-05-22T09:22:46.540Z,9.75
2019-05-22T09:25:15.730Z,8.55
2019-05-22T09:27:44.575Z,6.60
2019-05-22T09:30:12.916Z,8.23
2019-05-22T09:32:40.633Z,11.18
2019-05-22T09:35:08.440Z,8.08
2019-05-22T09:37:36.458Z,5.90
2019-05-22T09:40:05.379Z,11.20
2019-05-22T09:42:35.264Z,8.20
2019-05-22T09:45:05.076Z,6.62
2019-05-22T09:47:35.601Z,5.90
2019-05-22T09:50:05.066Z,8.65
2019-05-22T09:52:33.712Z,5.47
2019-05-22T09:55:01.510Z,7.92
2019-05-22T09:57:39.488Z,7.05
2019-05-22T10:00:14.457Z,8.10
2019-05-22T10:02:42.535Z,11.25
2019-05-22T10:05:13.332Z,10.15
2019-05-22T10:07:57.948Z,10.08
2019-05-22T10:10:12.234Z,8.20
2019-05-22T10:12:40.076Z,9.38
2019-05-22T10:15:27.452Z,9.48
2019-05-22T10:17:59.599Z,10.55
2019-05-22T10:20:36.010Z,9.60
2019-05-22T10:23:15.485Z,13.28
2019-05-22T10:25:36.908Z,9.58
2019-05-22T10:28:06.427Z,9.98
2019-05-22T10:30:36.717Z,7.87
2019-05-22T10:33:28.591Z,12.43
2019-05-22T10:35:59.937Z,10.25
2019-05-22T10:38:28.039Z,11.15
2019-05-22T10:40:59.475Z,7.87
2019-05-22T10:43:35.075Z,8.70
2019-05-22T10:46:08.614Z,9.45
2019-05-22T10:48:45.834Z,8.08
2019-05-22T10:51:13.737Z,7.10
2019-05-22T10:53:42.376Z,7.35
2019-05-22T10:56:12.577Z,6.55
2019-05-22T10:58:40.305Z,7.42
2019-05-22T11:01:08.547Z,5.25
2019-05-22T11:03:37.176Z,8.45
2019-05-22T11:06:08.021Z,6.95
2019-05-22T11:08:36.146Z,7.67
2019-05-22T11:11:04.152Z,4.58
2019-05-22T11:13:34.221Z,7.25
2019-05-22T11:16:02.030Z,7.60
2019-05-22T11:18:30.522Z,8.98
2019-05-22T11:20:58.946Z,7.03
2019-05-22T11:23:27.802Z,5.42
2019-05-22T11:25:56.311Z,4.75
2019-05-22T11:28:25.779Z,4.83
2019-05-22T11:30:53.631Z,4.53
2019-05-22T11:33:21.334Z,6.12
2019-05-22T11:35:49.241Z,4.72
2019-05-22T11:38:18.499Z,4.53
2019-05-22T11:40:46.534Z,6.75
2019-05-22T11:43:19.624Z,5.50
2019-05-22T11:45:47.193Z,5.12
2019-05-22T11:48:15.426Z,4.05
2019-05-22T11:50:44.456Z,4.92
2019-05-22T11:53:13.394Z,8.38
2019-05-22T11:55:45.597Z,4.17
2019-05-22T11:58:11.448Z,4.92
2019-05-22T12:00:40.713Z,6.95
2019-05-22T12:03:11.958Z,10.68
2019-05-22T12:05:40.848Z,4.30
2019-05-22T12:08:10.026Z,5.12
2019-05-22T12:10:38.114Z,4.97
2019-05-22T12:13:20.350Z,3.37
2019-05-22T12:15:49.362Z,6.62
2019-05-22T12:18:18.542Z,6.22
2019-05-22T12:20:46.225Z,4.75
2019-05-22T12:23:16.858Z,7.25
2019-05-22T12:25:49.301Z,3.80
2019-05-22T12:28:32.868Z,4.40
2019-05-22T12:31:13.537Z,6.25
2019-05-22T12:33:41.524Z,6.37
2019-05-22T12:36:13.575Z,4.20
2019-05-22T12:38:42.386Z,3.42
2019-05-22T12:41:13.912Z,4.03
2019-05-22T12:43:44.788Z,7.97
2019-05-22T12:46:12.783Z,3.17
2019-05-22T12:48:43.020Z,5.85
2019-05-22T12:51:11.101Z,4.42
2019-05-22T12:53:39.476Z,3.62
2019-05-22T12:56:07.471Z,6.65
2019-05-22T12:58:36.697Z,2.80
2019-05-22T13:01:09.269Z,6.45
2019-05-22T13:03:38.735Z,2.92
2019-05-22T13:06:09.677Z,2.87
2019-05-22T13:08:38.438Z,3.70
2019-05-22T13:11:08.963Z,4.17
2019-05-22T13:13:37.463Z,4.42
2019-05-22T13:16:23.222Z,5.45
2019-05-22T13:18:56.414Z,4.42
2019-05-22T13:21:33.473Z,2.83
2019-05-22T13:24:13.022Z,6.47
2019-05-22T13:26:41.508Z,2.60
2019-05-22T13:29:12.585Z,5.03
2019-05-22T13:31:42.583Z,5.90
2019-05-22T13:34:15.243Z,2.12
2019-05-22T13:36:49.317Z,5.00
2019-05-22T13:39:19.635Z,5.53
2019-05-22T13:41:53.271Z,5.87
2019-05-22T13:44:27.666Z,6.15
2019-05-22T13:46:56.955Z,2.92
2019-05-22T13:49:30.204Z,2.08
2019-05-22T13:51:58.910Z,5.15
2019-05-22T13:54:27.439Z,2.25
2019-05-22T13:56:55.455Z,4.78
2019-05-22T13:59:23.828Z,1.50
2019-05-22T14:01:52.442Z,4.22
2019-05-22T14:04:20.988Z,2.20
2019-05-22T14:06:49.299Z,3.30
2019-05-22T14:09:21.350Z,3.58
2019-05-22T14:11:49.392Z,4.95
2019-05-22T14:14:17.890Z,6.03
2019-05-22T14:16:49.230Z,2.95
2019-05-22T14:19:15.983Z,5.55
2019-05-22T14:21:50.839Z,1.80
2019-05-22T14:24:13.747Z,5.22
2019-05-22T14:26:41.555Z,4.90
2019-05-22T14:29:09.552Z,3.67
2019-05-22T14:31:42.128Z,3.40
2019-05-22T14:34:11.042Z,5.20
2019-05-22T14:36:40.046Z,3.67
2019-05-22T14:39:10.007Z,5.22
2019-05-22T14:41:38.363Z,2.75
2019-05-22T14:44:06.570Z,3.90
2019-05-22T14:46:35.374Z,4.85
2019-05-22T14:49:03.570Z,3.15
2019-05-22T14:51:32.897Z,5.50
2019-05-22T14:54:01.360Z,3.15
2019-05-22T14:56:29.127Z,2.37
2019-05-22T14:58:56.899Z,4.85
2019-05-22T15:01:24.709Z,2.90
2019-05-22T15:03:52.552Z,3.72
2019-05-22T15:06:20.916Z,3.05
2019-05-22T15:08:49.331Z,5.65
2019-05-22T15:11:17.549Z,2.17
2019-05-22T15:13:45.874Z,5.28
2019-05-22T15:16:14.392Z,4.95
2019-05-22T15:18:42.455Z,3.35
2019-05-22T15:21:11.059Z,3.08
2019-05-22T15:23:46.004Z,2.20
2019-05-22T15:26:20.959Z,3.80
2019-05-22T15:28:50.423Z,3.40
2019-05-22T15:31:18.937Z,3.75
2019-05-22T15:33:49.303Z,2.10
2019-05-22T15:36:22.045Z,3.47
2019-05-22T15:38:54.690Z,2.37
2019-05-22T15:41:29.181Z,3.33
2019-05-22T15:43:58.917Z,1.60
2019-05-22T15:46:27.602Z,2.75
2019-05-22T15:48:56.285Z,5.25
2019-05-22T15:51:29.719Z,4.70
2019-05-22T15:54:01.909Z,5.22
2019-05-22T15:56:33.336Z,1.40
2019-05-22T15:59:04.577Z,1.70
2019-05-22T16:01:33.562Z,2.02
2019-05-22T16:04:03.825Z,2.45
2019-05-22T16:06:32.294Z,2.33
2019-05-22T16:09:03.597Z,2.02
2019-05-22T16:11:33.557Z,1.85
2019-05-22T16:14:03.268Z,2.42
2019-05-22T16:16:31.669Z,4.40
2019-05-22T16:19:03.793Z,4.92
2019-05-22T16:21:32.924Z,2.87
2019-05-22T16:24:01.539Z,3.05
2019-05-22T16:26:29.695Z,4.45
2019-05-22T16:28:59.793Z,4.75
2019-05-22T16:31:28.397Z,4.28
2019-05-22T16:33:56.113Z,2.58
2019-05-22T16:36:24.771Z,2.12
2019-05-22T16:38:55.108Z,2.05
2019-05-22T16:41:24.807Z,3.12
2019-05-22T16:43:53.505Z,2.67
2019-05-22T16:46:23.202Z,2.22
2019-05-22T16:48:51.528Z,3.55
2019-05-22T16:51:21.043Z,2.65
2019-05-22T16:53:53.429Z,1.80
2019-05-22T16:56:22.710Z,2.83
2019-05-22T16:58:52.687Z,2.75
2019-05-22T17:01:23.604Z,2.83
2019-05-22T17:03:53.837Z,1.35
2019-05-22T17:06:24.250Z,6.72
2019-05-22T17:08:54.823Z,2.77
2019-05-22T17:11:24.140Z,2.55
2019-05-22T17:13:55.473Z,1.70
2019-05-22T17:16:25.329Z,3.10
2019-05-22T17:18:53.838Z,3.10
2019-05-22T17:21:21.783Z,4.90
2019-05-22T17:23:50.091Z,2.00
2019-05-22T17:26:18.096Z,7.47
2019-05-22T17:28:47.209Z,2.12
2019-05-22T17:31:16.002Z,1.47
2019-05-22T17:33:44.096Z,1.80
2019-05-22T17:36:13.033Z,2.42
2019-05-22T17:38:41.928Z,4.97
2019-05-22T17:41:10.725Z,2.83
2019-05-22T17:43:39.946Z,2.90
2019-05-22T17:46:08.576Z,5.67
2019-05-22T17:48:39.058Z,2.67
2019-05-22T17:51:16.225Z,5.97
2019-05-22T17:53:45.613Z,5.08
2019-05-22T17:56:17.093Z,6.03
2019-05-22T17:58:48.342Z,5.10
2019-05-22T18:01:17.128Z,5.83
2019-05-22T18:03:44.947Z,3.22
2019-05-22T18:06:13.841Z,4.92
2019-05-22T18:08:42.773Z,3.05
2019-05-22T18:11:10.668Z,3.05
2019-05-22T18:13:58.170Z,4.87
2019-05-22T18:16:26.509Z,4.53
2019-05-22T18:25:47.967Z,5.20
2019-05-22T18:29:21.854Z,5.22
2019-05-22T18:32:02.069Z,2.37
2019-05-22T18:35:16.664Z,3.80
2019-05-22T18:38:14.191Z,2.12
2019-05-22T18:40:39.544Z,4.42
2019-05-22T18:43:08.812Z,3.95
2019-05-22T18:45:36.747Z,2.33
2019-05-22T18:48:06.683Z,3.95
2019-05-22T18:50:35.021Z,2.30
2019-05-22T18:53:04.018Z,2.47
2019-05-22T18:55:31.832Z,3.27
2019-05-22T18:58:00.672Z,8.23
2019-05-22T19:00:29.694Z,3.90
2019-05-22T19:02:57.471Z,4.35
2019-05-22T19:05:28.726Z,5.58
2019-05-22T19:07:56.881Z,4.10
2019-05-22T19:10:25.643Z,4.00
2019-05-22T19:12:53.449Z,3.30
2019-05-22T19:15:25.362Z,4.42
2019-05-22T19:17:54.065Z,3.30
2019-05-22T19:20:21.799Z,3.02
2019-05-22T19:23:00.277Z,4.55
2019-05-22T19:25:23.403Z,5.62
2019-05-22T19:27:55.900Z,6.00
2019-05-22T19:30:24.128Z,3.80
2019-05-22T19:32:52.710Z,5.80
2019-05-22T19:35:21.740Z,6.03
2019-05-22T19:37:56.142Z,4.20
2019-05-22T19:40:24.155Z,5.23
2019-05-22T19:42:55.196Z,10.10
2019-05-22T19:45:23.053Z,2.85
2019-05-22T19:47:54.247Z,3.07
2019-05-22T19:50:24.103Z,5.47
2019-05-22T19:53:15.764Z,9.10
2019-05-22T19:55:29.621Z,12.07
2019-05-22T19:58:00.628Z,7.13
2019-05-22T20:00:30.086Z,13.67
2019-05-22T20:02:58.708Z,12.03
2019-05-22T20:05:29.545Z,11.93
2019-05-22T20:07:57.264Z,14.10
2019-05-22T20:10:26.100Z,14.17
2019-05-22T20:12:55.361Z,16.97
2019-05-22T20:15:23.655Z,26.00
2019-05-22T20:17:51.501Z,10.83
2019-05-22T20:20:20.312Z,7.70
2019-05-22T20:22:49.092Z,9.33
2019-05-22T20:25:18.709Z,5.97
2019-05-22T20:27:47.065Z,11.40
2019-05-22T20:30:17.950Z,8.90
2019-05-22T20:32:45.829Z,15.33
2019-05-22T20:35:15.708Z,10.93
2019-05-22T20:37:45.814Z,17.20
2019-05-22T20:40:15.157Z,8.50
2019-05-22T20:42:43.620Z,7.10
2019-05-22T20:45:12.545Z,7.73
2019-05-22T20:47:43.439Z,14.70
2019-05-22T20:50:12.355Z,8.50
2019-05-22T20:52:40.345Z,14.23
2019-05-22T20:55:09.146Z,9.17
2019-05-22T20:57:37.463Z,19.80
2019-05-22T21:00:08.461Z,46.10
2019-05-22T21:02:36.659Z,56.37
2019-05-22T21:05:06.950Z,34.13
2019-05-22T21:07:40.355Z,17.63
2019-05-22T21:10:08.547Z,16.27
2019-05-22T21:12:36.659Z,18.23
2019-05-22T21:15:05.089Z,10.87
2019-05-22T21:17:32.776Z,7.50
2019-05-22T21:20:00.968Z,10.20
2019-05-22T21:22:30.559Z,13.30
2019-05-22T21:24:59.634Z,9.93
2019-05-22T21:27:28.229Z,9.67
2019-05-22T21:29:56.838Z,8.90
2019-05-22T21:32:25.231Z,11.90
2019-05-22T21:34:54.495Z,10.60
2019-05-22T21:37:28.423Z,13.90
2019-05-22T21:39:56.279Z,11.50
2019-05-22T21:42:24.663Z,21.73
2019-05-22T21:44:53.083Z,17.03
2019-05-22T21:47:21.303Z,6.87
2019-05-22T21:49:52.063Z,8.57
2019-05-22T21:52:21.372Z,6.53
2019-05-22T21:54:49.160Z,5.57
2019-05-22T21:57:17.551Z,6.53
2019-05-22T21:59:45.651Z,12.60
2019-05-22T22:02:22.536Z,8.53
2019-05-22T22:04:53.219Z,12.70
2019-05-22T22:07:21.513Z,13.13
2019-05-22T22:09:49.629Z,9.40
2019-05-22T22:12:21.648Z,9.03
2019-05-22T22:14:50.906Z,14.23
2019-05-22T22:17:20.407Z,10.60
2019-05-22T22:19:49.848Z,11.70
2019-05-22T22:22:29.511Z,8.73
2019-05-22T22:24:58.293Z,13.13
2019-05-22T22:27:26.884Z,12.97
2019-05-22T22:29:55.328Z,11.00
2019-05-22T22:32:25.379Z,9.23
2019-05-22T22:34:53.724Z,10.07
2019-05-22T22:37:22.617Z,13.17
2019-05-22T22:39:56.149Z,10.90
2019-05-22T22:42:27.960Z,12.70
2019-05-22T22:44:56.954Z,6.73
2019-05-22T22:47:35.458Z,9.07
2019-05-22T22:50:05.946Z,11.40
2019-05-22T22:52:34.188Z,11.27
2019-05-22T22:55:03.548Z,11.03
2019-05-22T22:57:31.836Z,16.23
2019-05-22T22:59:59.625Z,7.37
2019-05-22T23:02:30.411Z,5.83
2019-05-22T23:04:58.939Z,6.87
2019-05-22T23:07:29.188Z,14.13
2019-05-22T23:09:58.384Z,6.07
2019-05-22T23:12:27.687Z,2.63
2019-05-22T23:14:57.879Z,10.97
2019-05-22T23:17:26.227Z,4.97
2019-05-22T23:19:53.072Z,3.10
2019-05-22T23:22:21.808Z,8.70
2019-05-22T23:24:52.967Z,14.17
2019-05-22T23:27:22.785Z,6.93
2019-05-22T23:29:51.864Z,9.97
2019-05-22T23:32:20.515Z,13.07
2019-05-22T23:34:49.491Z,10.47
2019-05-22T23:37:20.691Z,8.43
2019-05-22T23:39:52.401Z,8.83
2019-05-22T23:42:28.196Z,13.73
2019-05-22T23:44:57.480Z,27.93
2019-05-22T23:47:26.568Z,17.23
2019-05-22T23:49:55.756Z,15.20
2019-05-22T23:52:23.436Z,11.80
2019-05-22T23:54:53.457Z,17.23
2019-05-22T23:57:22.496Z,11.57
2019-05-22T23:59:56.221Z,16.37
